Time;durP1;ratioP1;P1;durP2;ratioP2;P2;SDS_P1;SDS_P2;PMS_P1;PMS_P2;Temp;Humidity;BMP_temperature;BMP_pressure;BME280_temperature;BME280_humidity;BME280_pressure;Samples;Min_cycle;Max_cycle;Signal;HPM_P1;HPM_P2
2022/05/14 00:02:24;;;;;;;10.48;2.50;;;;;;;9.68;100.00;102114.44;5268700;28;20101;-69
2022/05/14 00:04:55;;;;;;;6.53;1.48;;;;;;;9.60;100.00;102107.06;5278979;28;20415;-69
2022/05/14 00:07:25;;;;;;;6.45;1.90;;;;;;;9.58;100.00;102115.19;5282842;28;20027;-70
2022/05/14 00:09:55;;;;;;;6.32;1.88;;;;;;;9.59;100.00;102113.41;5282587;28;20079;-70
2022/05/14 00:15:15;;;;;;;5.10;1.42;;;;;;;9.63;100.00;102111.28;5284566;28;20103;-69
2022/05/14 00:17:47;;;;;;;5.40;2.25;;;;;;;9.62;100.00;102104.22;5268282;28;20537;-69
2022/05/14 00:20:18;;;;;;;5.80;1.88;;;;;;;9.61;100.00;102106.06;5274160;28;20022;-69
2022/05/14 00:22:48;;;;;;;12.27;1.95;;;;;;;9.57;100.00;102099.25;5289531;28;20024;-70
2022/05/14 00:25:20;;;;;;;12.88;2.30;;;;;;;9.52;100.00;102094.28;5289167;28;20499;-69
2022/05/14 00:27:51;;;;;;;7.43;1.80;;;;;;;9.54;100.00;102094.19;5289027;28;20031;-69
2022/05/14 00:30:25;;;;;;;6.55;2.17;;;;;;;9.54;100.00;102089.66;5280519;28;20032;-69
2022/05/14 00:32:55;;;;;;;8.20;2.38;;;;;;;9.55;100.00;102091.34;5285263;28;20391;-69
2022/05/14 00:35:26;;;;;;;5.97;1.80;;;;;;;9.56;100.00;102085.00;5280399;28;20104;-69
2022/05/14 00:37:57;;;;;;;11.93;1.80;;;;;;;9.57;100.00;102089.38;5271978;28;20106;-69
2022/05/14 00:40:32;;;;;;;7.20;2.10;;;;;;;9.56;100.00;102085.00;5289167;28;20396;-69
2022/05/14 00:43:03;;;;;;;;;;;;;;;9.55;100.00;102087.84;5275571;28;20369;-69
2022/05/14 00:45:39;;;;;;;6.10;1.75;;;;;;;9.51;100.00;102089.91;5289205;28;19987;-69
2022/05/14 00:48:11;;;;;;;4.22;2.33;;;;;;;9.45;100.00;102093.13;5281382;28;20028;-69
2022/05/14 00:50:48;;;;;;;9.52;1.85;;;;;;;9.36;100.00;102091.19;5269741;28;20020;-70
2022/05/14 00:53:21;;;;;;;9.10;2.40;;;;;;;9.26;100.00;102091.13;5288766;28;20028;-69
2022/05/14 00:55:54;;;;;;;9.38;2.22;;;;;;;9.20;100.00;102094.31;5270747;28;20119;-69
2022/05/14 00:58:38;;;;;;;5.63;2.25;;;;;;;9.15;100.00;102093.00;5267689;28;20055;-69
2022/05/14 01:01:08;;;;;;;6.57;1.70;;;;;;;9.09;100.00;102094.34;5275672;28;20023;-69
2022/05/14 01:03:39;;;;;;;10.70;2.33;;;;;;;9.06;100.00;102098.09;5287104;28;20110;-69
2022/05/14 01:06:14;;;;;;;6.00;2.00;;;;;;;9.03;100.00;102089.47;5271364;28;20071;-69
2022/05/14 01:08:47;;;;;;;7.65;2.40;;;;;;;9.00;100.00;102095.09;5275870;28;20019;-70
2022/05/14 01:11:27;;;;;;;7.32;2.30;;;;;;;8.92;100.00;102098.38;5276491;28;20027;-71
2022/05/14 01:13:58;;;;;;;8.73;2.22;;;;;;;8.81;100.00;102090.38;5287470;28;20024;-69
2022/05/14 01:16:29;;;;;;;4.80;1.67;;;;;;;8.73;100.00;102101.69;5274779;28;20473;-70
2022/05/14 01:19:00;;;;;;;7.80;2.13;;;;;;;8.66;100.00;102102.31;5280460;28;20043;-69
2022/05/14 01:22:09;;;;;;;9.52;2.15;;;;;;;8.58;100.00;102102.94;5267272;28;20020;-69
2022/05/14 01:27:49;;;;;;;6.90;1.77;;;;;;;8.48;100.00;102099.28;5274454;28;20059;-69
2022/05/14 01:30:19;;;;;;;8.98;2.13;;;;;;;8.43;100.00;102109.50;5288788;28;20362;-69
2022/05/14 01:33:04;;;;;;;6.82;2.08;;;;;;;8.38;100.00;102103.66;5274087;28;20028;-70
2022/05/14 01:35:38;;;;;;;6.05;1.92;;;;;;;8.32;100.00;102110.31;5277156;28;20020;-69
2022/05/14 01:38:09;;;;;;;7.95;2.35;;;;;;;8.26;100.00;102110.81;5286189;28;20034;-69
2022/05/14 01:40:40;;;;;;;14.93;2.15;;;;;;;8.19;100.00;102110.44;5288030;28;20047;-69
2022/05/14 01:43:11;;;;;;;6.65;2.33;;;;;;;8.13;100.00;102110.91;5267029;28;20032;-69
2022/05/14 01:45:42;;;;;;;8.63;2.50;;;;;;;8.10;100.00;102115.66;5265551;28;20020;-69
2022/05/14 01:48:13;;;;;;;6.28;2.28;;;;;;;8.02;100.00;102110.88;5275302;28;20443;-69
2022/05/14 01:50:44;;;;;;;6.95;2.13;;;;;;;7.98;100.00;102107.63;5271945;28;20038;-70
2022/05/14 01:53:15;;;;;;;8.05;2.03;;;;;;;7.95;100.00;102115.88;5267022;28;20393;-69
2022/05/14 01:55:45;;;;;;;5.63;1.80;;;;;;;7.94;100.00;102107.97;5266115;28;20043;-69
2022/05/14 02:01:27;;;;;;;11.68;2.55;;;;;;;7.79;100.00;102107.34;5266794;28;20020;-69
2022/05/14 02:04:01;;;;;;;10.90;2.20;;;;;;;7.73;100.00;102116.69;5279699;28;20318;-69
2022/05/14 02:06:32;;;;;;;13.70;2.25;;;;;;;7.72;100.00;102109.59;5273061;28;20026;-68
2022/05/14 02:09:05;;;;;;;10.05;2.50;;;;;;;7.70;100.00;102108.03;5274136;28;20031;-69
2022/05/14 02:11:39;;;;;;;9.30;2.38;;;;;;;7.67;100.00;102114.44;5273768;28;20172;-69
2022/05/14 02:14:10;;;;;;;9.20;2.33;;;;;;;7.66;100.00;102109.22;5280404;28;20028;-68
2022/05/14 02:16:40;;;;;;;11.43;2.03;;;;;;;7.64;100.00;102120.03;5270417;28;20098;-69
2022/05/14 02:19:11;;;;;;;13.55;2.38;;;;;;;7.61;100.00;102106.06;5275824;28;20051;-69
2022/05/14 02:21:41;;;;;;;8.95;2.38;;;;;;;7.55;100.00;102107.38;5284539;27;20092;-68
2022/05/14 02:24:12;;;;;;;5.80;2.33;;;;;;;7.48;100.00;102112.34;5276979;28;20485;-69
2022/05/14 02:26:42;;;;;;;5.35;2.00;;;;;;;7.43;100.00;102103.81;5282777;28;20081;-69
2022/05/14 02:29:13;;;;;;;8.02;2.40;;;;;;;7.34;100.00;102100.97;5277430;28;20042;-68
2022/05/14 02:31:43;;;;;;;13.75;2.67;;;;;;;7.26;100.00;102109.56;5273661;28;20059;-69
2022/05/14 02:34:14;;;;;;;8.60;2.97;;;;;;;7.23;100.00;102107.13;5287072;28;20024;-69
2022/05/14 02:36:44;;;;;;;11.15;2.88;;;;;;;7.20;100.00;102108.19;5280021;28;20104;-69
2022/05/14 02:39:15;;;;;;;9.77;2.78;;;;;;;7.19;100.00;102108.31;5281005;28;20024;-69
2022/05/14 02:41:45;;;;;;;10.93;3.22;;;;;;;7.17;100.00;102110.22;5278244;28;20499;-69
2022/05/14 02:44:16;;;;;;;7.38;2.67;;;;;;;7.14;100.00;102111.31;5279675;28;20016;-69
2022/05/14 02:46:46;;;;;;;6.75;2.67;;;;;;;7.13;100.00;102114.97;5276131;28;20076;-69
2022/05/14 02:49:17;;;;;;;8.90;2.90;;;;;;;7.12;100.00;102117.72;5273574;27;20050;-69
2022/05/14 02:51:47;;;;;;;12.35;3.08;;;;;;;7.10;100.00;102119.66;5286826;28;20062;-68
2022/05/14 02:54:18;;;;;;;11.00;3.22;;;;;;;7.10;100.00;102117.00;5286574;28;20023;-69
2022/05/14 02:56:48;;;;;;;9.23;2.55;;;;;;;7.07;100.00;102115.38;5274756;28;20024;-68
2022/05/14 02:59:19;;;;;;;12.57;2.90;;;;;;;7.06;100.00;102123.50;5266001;28;20362;-69
2022/05/14 03:01:49;;;;;;;6.38;2.58;;;;;;;7.08;100.00;102110.91;5265951;28;20112;-69
2022/05/14 03:04:24;;;;;;;8.70;2.13;;;;;;;7.11;100.00;102113.34;5273026;28;20019;-69
2022/05/14 03:06:55;;;;;;;19.50;4.10;;;;;;;7.13;100.00;102114.06;5281247;28;20012;-69
2022/05/14 03:09:26;;;;;;;8.50;3.08;;;;;;;7.11;100.00;102113.34;5277644;28;20107;-69
2022/05/14 03:11:57;;;;;;;7.97;3.67;;;;;;;7.07;100.00;102117.22;5279285;28;20103;-69
2022/05/14 03:14:27;;;;;;;19.30;2.83;;;;;;;7.03;100.00;102110.38;5275893;28;20030;-69
2022/05/14 03:16:58;;;;;;;10.68;3.08;;;;;;;6.97;100.00;102119.69;5286506;28;20426;-69
2022/05/14 03:19:28;;;;;;;9.50;3.03;;;;;;;6.90;100.00;102121.97;5275359;28;20477;-70
2022/05/14 03:21:59;;;;;;;7.93;2.88;;;;;;;6.86;100.00;102128.47;5279401;28;20020;-69
2022/05/14 03:24:29;;;;;;;13.57;3.50;;;;;;;6.82;100.00;102129.66;5265733;28;20023;-69
2022/05/14 03:27:00;;;;;;;12.68;2.72;;;;;;;6.78;100.00;102128.19;5285836;28;20047;-69
2022/05/14 03:29:30;;;;;;;11.05;3.08;;;;;;;6.77;100.00;102125.63;5272769;28;20062;-69
2022/05/14 03:32:01;;;;;;;7.57;3.35;;;;;;;6.73;100.00;102125.88;5278707;28;20405;-69
2022/05/14 03:34:32;;;;;;;11.32;2.92;;;;;;;6.74;100.00;102130.22;5279485;28;20024;-69
2022/05/14 03:37:04;;;;;;;8.75;3.60;;;;;;;6.81;100.00;102121.78;5265750;28;20028;-69
2022/05/14 03:39:34;;;;;;;9.95;3.67;;;;;;;6.81;100.00;102119.97;5266739;28;20035;-69
2022/05/14 03:42:05;;;;;;;10.93;3.42;;;;;;;6.78;100.00;102120.19;5269588;28;20016;-69
2022/05/14 03:44:36;;;;;;;7.22;3.08;;;;;;;6.75;100.00;102120.41;5269242;28;20031;-69
2022/05/14 03:47:06;;;;;;;10.45;3.22;;;;;;;6.73;100.00;102120.53;5282184;28;20024;-70
2022/05/14 03:49:37;;;;;;;9.38;3.13;;;;;;;6.71;100.00;102117.09;5276798;28;20030;-70
2022/05/14 03:52:08;;;;;;;7.97;3.17;;;;;;;6.69;100.00;102119.03;5276131;28;20056;-70
2022/05/14 03:54:39;;;;;;;9.68;3.55;;;;;;;6.68;100.00;102120.00;5268723;28;20456;-70
2022/05/14 03:57:09;;;;;;;13.13;3.58;;;;;;;6.69;100.00;102111.03;5270744;28;20060;-69
2022/05/14 03:59:40;;;;;;;9.88;3.85;;;;;;;6.71;100.00;102116.25;5290399;28;20151;-69
2022/05/14 04:02:11;;;;;;;9.57;3.88;;;;;;;6.70;100.00;102117.22;5276530;28;20130;-70
2022/05/14 04:04:41;;;;;;;10.57;3.33;;;;;;;6.69;100.00;102115.53;5279441;28;20442;-70
2022/05/14 04:07:12;;;;;;;17.33;3.45;;;;;;;6.65;100.00;102111.38;5286771;28;20027;-70
2022/05/14 04:09:42;;;;;;;20.10;5.43;;;;;;;6.66;100.00;102116.56;5278206;28;20059;-70
2022/05/14 04:12:13;;;;;;;12.02;3.60;;;;;;;6.69;100.00;102115.53;5282579;28;20027;-69
2022/05/14 04:14:43;;;;;;;15.30;3.60;;;;;;;6.70;100.00;102117.22;5275620;28;20023;-69
2022/05/14 04:17:14;;;;;;;6.82;3.25;;;;;;;6.70;100.00;102119.88;5269165;28;20502;-69
2022/05/14 04:19:44;;;;;;;12.63;3.75;;;;;;;6.69;100.00;102120.84;5282242;28;20037;-69
2022/05/14 04:22:15;;;;;;;11.15;3.75;;;;;;;6.68;100.00;102119.16;5276720;28;20069;-69
2022/05/14 04:24:46;;;;;;;6.50;3.50;;;;;;;6.69;100.00;102120.84;5274386;28;20027;-70
2022/05/14 04:27:16;;;;;;;12.80;3.95;;;;;;;6.66;100.00;102119.25;5268529;28;20031;-69
2022/05/14 04:29:46;;;;;;;10.38;4.63;;;;;;;6.65;100.00;102122.03;5285145;28;20166;-69
2022/05/14 04:32:17;;;;;;;11.15;3.53;;;;;;;6.65;100.00;102120.22;5279163;28;20081;-69
2022/05/14 04:34:48;;;;;;;6.40;3.28;;;;;;;6.65;100.00;102120.22;5268276;28;20469;-70
2022/05/14 04:37:19;;;;;;;8.95;3.78;;;;;;;6.63;100.00;102119.47;5268603;28;20039;-69
2022/05/14 04:39:49;;;;;;;10.70;3.45;;;;;;;6.66;100.00;102126.41;5274418;28;20063;-69
2022/05/14 04:42:19;;;;;;;9.32;3.80;;;;;;;6.69;100.00;102131.53;5289308;28;20024;-69
2022/05/14 04:44:50;;;;;;;8.77;3.35;;;;;;;6.71;100.00;102132.25;5282139;28;20016;-69
2022/05/14 04:47:21;;;;;;;7.63;3.60;;;;;;;6.73;100.00;102130.34;5269157;28;20028;-69
2022/05/14 04:49:51;;;;;;;6.30;2.88;;;;;;;6.75;100.00;102131.06;5281006;28;20028;-69
2022/05/14 04:52:21;;;;;;;10.05;3.50;;;;;;;6.79;100.00;102145.06;5268709;28;20031;-68
2022/05/14 04:54:52;;;;;;;9.18;3.42;;;;;;;6.85;100.00;102140.13;5277774;28;20035;-69
2022/05/14 04:57:22;;;;;;;12.13;4.13;;;;;;;6.92;100.00;102138.69;5275672;28;20107;-69
2022/05/14 04:59:53;;;;;;;7.45;3.40;;;;;;;6.99;100.00;102139.97;5289412;27;20027;-69
2022/05/14 05:05:13;;;;;;;8.15;4.00;;;;;;;7.20;100.00;102142.03;5273671;28;20431;-69
2022/05/14 05:07:46;;;;;;;10.55;4.15;;;;;;;7.26;100.00;102144.25;5284645;28;20378;-68
2022/05/14 05:10:17;;;;;;;17.58;4.40;;;;;;;7.37;100.00;102148.78;5275313;27;20023;-68
2022/05/14 05:12:48;;;;;;;12.48;3.95;;;;;;;7.48;100.00;102151.50;5277723;28;20028;-68
2022/05/14 05:15:18;;;;;;;15.00;3.80;;;;;;;7.65;100.00;102148.44;5278864;28;20485;-68
2022/05/14 05:17:49;;;;;;;14.15;3.92;;;;;;;7.86;100.00;102158.47;5276800;28;20103;-68
2022/05/14 05:20:19;;;;;;;16.17;4.55;;;;;;;8.05;100.00;102154.28;5267297;28;20031;-68
2022/05/14 05:22:50;;;;;;;12.23;5.38;;;;;;;8.24;100.00;102159.06;5267598;28;20082;-68
2022/05/14 05:25:20;;;;;;;14.52;4.72;;;;;;;8.43;100.00;102149.63;5274355;28;20031;-68
2022/05/14 05:27:51;;;;;;;15.25;4.35;;;;;;;8.62;100.00;102151.69;5274688;27;20427;-68
2022/05/14 05:30:21;;;;;;;11.15;5.15;;;;;;;8.75;100.00;102150.59;5280202;28;20077;-68
2022/05/14 05:32:52;;;;;;;13.52;5.20;;;;;;;8.92;100.00;102162.63;5280811;28;20499;-69
2022/05/14 05:35:23;;;;;;;15.48;5.13;;;;;;;9.11;100.00;102161.13;5276210;28;20507;-69
2022/05/14 05:37:53;;;;;;;12.68;5.00;;;;;;;9.32;100.00;102160.22;5283442;28;20473;-69
2022/05/14 05:40:24;;;;;;;15.57;4.85;;;;;;;9.49;100.00;102153.50;5277883;28;20073;-69
2022/05/14 05:42:54;;;;;;;16.92;4.38;;;;;;;9.75;100.00;102162.03;5274111;28;20024;-68
2022/05/14 05:45:25;;;;;;;13.70;3.83;;;;;;;9.91;100.00;102164.25;5275729;28;20049;-69
2022/05/14 05:47:55;;;;;;;17.60;4.70;;;;;;;10.11;100.00;102168.78;5272714;28;20077;-69
2022/05/14 05:50:26;;;;;;;12.35;4.03;;;;;;;10.29;100.00;102171.75;5287876;28;20012;-69
2022/05/14 05:52:57;;;;;;;15.00;4.53;;;;;;;10.87;100.00;102163.97;5267222;28;20183;-69
2022/05/14 05:58:19;;;;;;;9.35;3.50;;;;;;;12.46;100.00;102164.59;5264408;28;20032;-69
2022/05/14 06:00:49;;;;;;;15.80;4.30;;;;;;;13.06;100.00;102158.81;5269877;28;20030;-69
2022/05/14 06:03:20;;;;;;;10.60;3.35;;;;;;;13.82;100.00;102155.72;5274950;28;20477;-69
2022/05/14 06:05:50;;;;;;;18.08;4.28;;;;;;;14.83;100.00;102162.31;5285703;28;20280;-69
2022/05/14 06:08:21;;;;;;;14.40;3.90;;;;;;;15.39;100.00;102159.94;5272521;28;20496;-69
2022/05/14 06:10:51;;;;;;;14.18;3.80;;;;;;;16.17;100.00;102165.75;5286494;28;20404;-69
2022/05/14 06:13:22;;;;;;;16.10;5.07;;;;;;;16.11;100.00;102168.28;5286331;28;20100;-69
2022/05/14 06:15:52;;;;;;;15.13;3.90;;;;;;;16.11;100.00;102160.16;5279160;28;20051;-70
2022/05/14 06:18:23;;;;;;;20.65;4.50;;;;;;;16.32;100.00;102165.91;5282131;28;20044;-70
2022/05/14 06:20:53;;;;;;;22.00;4.28;;;;;;;16.26;100.00;102153.88;5265279;28;20020;-69
2022/05/14 06:23:24;;;;;;;14.90;4.82;;;;;;;16.09;100.00;102160.34;5283681;28;20031;-69
2022/05/14 06:25:54;;;;;;;20.23;5.70;;;;;;;16.18;100.00;102155.78;5286072;28;20036;-69
2022/05/14 06:28:25;;;;;;;21.02;5.50;;;;;;;16.35;100.00;102149.31;5285637;28;20521;-70
2022/05/14 06:30:57;;;;;;;13.02;5.03;;;;;;;17.26;100.00;102161.50;5272190;28;20089;-70
2022/05/14 06:33:28;;;;;;;15.75;5.90;;;;;;;16.29;100.00;102160.84;5286516;28;20027;-69
2022/05/14 06:35:59;;;;;;;16.63;5.50;;;;;;;16.40;100.00;102167.75;5271302;28;20035;-70
2022/05/14 06:38:29;;;;;;;18.80;6.20;;;;;;;16.42;100.00;102158.44;5265544;28;20051;-70
2022/05/14 06:41:18;;;;;;;20.05;5.93;;;;;;;17.25;100.00;102163.38;5265341;28;20039;-70
2022/05/14 06:43:50;;;;;;;14.85;4.85;;;;;;;18.03;100.00;102169.63;5277375;28;20384;-70
2022/05/14 06:46:21;;;;;;;12.98;4.45;;;;;;;18.68;100.00;102179.00;5271895;28;20114;-70
2022/05/14 06:48:51;;;;;;;16.50;4.85;;;;;;;18.83;100.00;102183.44;5285617;28;20541;-70
2022/05/14 06:51:25;;;;;;;18.98;4.88;;;;;;;18.31;100.00;102178.84;5272181;28;20358;-70
2022/05/14 06:54:15;;;;;;;20.58;5.78;;;;;;;18.67;100.00;102183.56;5285781;28;20015;-70
2022/05/14 06:56:46;;;;;;;16.52;5.22;;;;;;;19.37;100.00;102174.88;5273618;28;20036;-70
2022/05/14 06:59:16;;;;;;;27.25;5.70;;;;;;;19.18;100.00;102180.06;5284738;28;20031;-70
2022/05/14 07:01:47;;;;;;;15.77;4.50;;;;;;;19.82;100.00;102191.91;5284566;28;20024;-70
2022/05/14 07:07:08;;;;;;;17.60;5.22;;;;;;;20.87;100.00;102182.84;5293576;28;20564;-70
2022/05/14 07:09:38;;;;;;;16.48;5.28;;;;;;;19.87;100.00;102177.72;5285991;28;20106;-70
2022/05/14 07:12:10;;;;;;;19.90;5.78;;;;;;;19.37;100.00;102174.03;5267061;28;20520;-70
2022/05/14 07:14:40;;;;;;;23.45;6.95;;;;;;;19.05;100.00;102178.06;5273731;28;20016;-71
2022/05/14 07:17:11;;;;;;;15.05;4.70;;;;;;;20.51;100.00;102183.06;5275718;28;20046;-70
2022/05/14 07:19:41;;;;;;;17.73;4.88;;;;;;;20.68;100.00;102181.72;5276005;27;20020;-70
2022/05/14 07:22:14;;;;;;;20.95;6.13;;;;;;;19.71;100.00;102192.44;5282605;28;20358;-71
2022/05/14 07:24:45;;;;;;;23.88;5.85;;;;;;;20.21;100.00;102193.31;5289418;28;20036;-70
2022/05/14 07:27:16;;;;;;;14.93;4.40;;;;;;;20.60;100.00;102189.22;5280148;28;20622;-71
2022/05/14 07:29:46;;;;;;;19.83;5.60;;;;;;;20.14;100.00;102179.66;5286131;28;20024;-71
2022/05/14 07:32:19;;;;;;;18.52;5.53;;;;;;;20.25;100.00;102186.44;5280293;28;20073;-71
2022/05/14 07:34:49;;;;;;;18.00;4.85;;;;;;;21.21;100.00;102187.44;5269508;28;20099;-70
2022/05/14 07:37:27;;;;;;;17.63;4.72;;;;;;;20.87;100.00;102187.47;5269780;28;20118;-71
2022/05/14 07:40:04;;;;;;;22.92;5.65;;;;;;;20.03;100.00;102184.75;5277212;28;20024;-71
2022/05/14 07:42:41;;;;;;;18.15;5.25;;;;;;;19.58;100.00;102184.13;5276902;28;20080;-71
2022/05/14 07:45:18;;;;;;;22.60;5.88;;;;;;;20.06;100.00;102182.50;5290326;28;20373;-71
2022/05/14 07:47:50;;;;;;;18.75;5.75;;;;;;;20.07;100.00;102183.34;5271068;28;20028;-71
2022/05/14 07:50:22;;;;;;;20.98;5.78;;;;;;;20.43;100.00;102184.06;5282478;28;20220;-71
2022/05/14 07:52:52;;;;;;;19.48;5.38;;;;;;;21.01;100.00;102186.50;5268833;28;20056;-71
2022/05/14 07:55:23;;;;;;;16.67;4.15;;;;;;;22.90;89.26;102189.03;5268778;28;20031;-71
2022/05/14 07:57:53;;;;;;;19.25;5.47;;;;;;;22.48;91.90;102193.91;5277068;28;20036;-71
2022/05/14 08:00:25;;;;;;;17.65;5.05;;;;;;;22.23;90.08;102191.00;5275693;28;20024;-71
2022/05/14 08:02:55;;;;;;;19.35;5.43;;;;;;;21.10;97.49;102193.47;5280478;28;20016;-70
2022/05/14 08:05:26;;;;;;;19.40;5.07;;;;;;;21.03;100.00;102199.94;5268718;28;20061;-70
2022/05/14 08:07:57;;;;;;;20.65;4.97;;;;;;;20.40;100.00;102187.16;5276718;28;20551;-70
2022/05/14 08:10:27;;;;;;;17.73;4.47;;;;;;;21.25;100.00;102195.22;5283096;28;20102;-70
2022/05/14 08:12:58;;;;;;;15.52;5.43;;;;;;;21.25;100.00;102200.66;5268940;28;20462;-70
2022/05/14 08:15:28;;;;;;;14.50;4.78;;;;;;;20.97;100.00;102187.94;5287668;28;20448;-70
2022/05/14 08:17:59;;;;;;;20.60;4.85;;;;;;;21.38;100.00;102182.47;5276600;28;20032;-70
2022/05/14 08:20:29;;;;;;;15.52;4.15;;;;;;;22.36;95.32;102185.53;5275410;28;20063;-70
2022/05/14 08:25:49;;;;;;;15.57;4.70;;;;;;;22.59;86.87;102179.63;5278491;28;20459;-70
2022/05/14 08:28:20;;;;;;;24.30;5.05;;;;;;;22.84;85.50;102181.63;5284868;28;20161;-70
2022/05/14 08:30:50;;;;;;;17.67;3.83;;;;;;;23.35;83.34;102178.94;5280247;28;20046;-70
2022/05/14 08:33:21;;;;;;;15.30;4.25;;;;;;;23.78;79.88;102183.72;5269904;28;20111;-71
2022/05/14 08:35:51;;;;;;;17.42;4.82;;;;;;;24.65;73.23;102181.94;5267793;28;20036;-70
2022/05/14 08:38:23;;;;;;;18.92;5.10;;;;;;;24.14;74.18;102190.41;5281365;28;20035;-70
2022/05/14 08:40:57;;;;;;;11.10;4.13;;;;;;;23.47;84.84;102190.00;5268430;28;20112;-71
2022/05/14 08:43:35;;;;;;;17.77;5.00;;;;;;;22.94;93.11;102182.91;5277785;28;20068;-70
2022/05/14 08:46:09;;;;;;;13.20;4.25;;;;;;;22.88;88.98;102183.75;5270555;28;20113;-70
2022/05/14 08:48:39;;;;;;;17.20;4.60;;;;;;;22.75;86.85;102183.78;5268132;28;20380;-70
2022/05/14 08:51:14;;;;;;;22.42;5.47;;;;;;;22.96;83.75;102185.41;5281607;28;20026;-70
2022/05/14 08:53:48;;;;;;;19.88;4.60;;;;;;;23.25;83.30;102178.56;5281796;28;20160;-71
2022/05/14 08:56:28;;;;;;;15.00;4.05;;;;;;;23.81;79.07;102180.56;5275602;28;20039;-70
2022/05/14 08:59:25;;;;;;;14.73;3.63;;;;;;;22.86;78.47;102185.84;5275083;28;20023;-71
2022/05/14 09:02:01;;;;;;;14.57;3.78;;;;;;;22.06;85.46;102179.63;5275072;28;20020;-70
2022/05/14 09:04:32;;;;;;;18.27;4.63;;;;;;;22.19;85.44;102181.56;5280099;28;20027;-70
2022/05/14 09:07:02;;;;;;;18.95;4.25;;;;;;;22.33;89.54;102182.38;5275518;28;20023;-71
2022/05/14 09:09:33;;;;;;;15.23;3.88;;;;;;;22.40;85.41;102177.75;5277741;28;20027;-70
2022/05/14 09:12:04;;;;;;;11.77;3.90;;;;;;;22.67;82.82;102184.84;5269734;28;20111;-70
2022/05/14 09:14:37;;;;;;;19.70;4.20;;;;;;;22.91;82.88;102182.50;5278974;28;20024;-70
2022/05/14 09:17:24;;;;;;;15.80;3.55;;;;;;;23.52;76.14;102182.81;5269233;28;20024;-71
2022/05/14 09:19:57;;;;;;;14.40;4.47;;;;;;;22.97;78.93;102184.34;5281130;28;20023;-70
2022/05/14 09:22:31;;;;;;;18.23;4.65;;;;;;;22.01;81.40;102175.84;5277203;28;20034;-70
2022/05/14 09:25:34;;;;;;;22.23;4.10;;;;;;;24.08;70.70;102178.44;5284471;28;20063;-70
2022/05/14 09:28:40;;;;;;;17.17;4.80;;;;;;;23.88;70.73;102180.50;5269352;28;20036;-71
2022/05/14 09:31:21;;;;;;;10.52;3.25;;;;;;;22.90;72.86;102175.34;5274475;28;20031;-70
2022/05/14 09:34:01;;;;;;;14.68;3.58;;;;;;;23.38;71.75;102183.13;5278219;28;20064;-70
2022/05/14 09:36:35;;;;;;;24.13;3.05;;;;;;;23.77;67.79;102176.56;5267100;28;20059;-71
2022/05/14 09:39:10;;;;;;;17.80;4.07;;;;;;;22.28;75.95;102172.06;5267035;28;20032;-70
2022/05/14 09:41:57;;;;;;;14.38;4.30;;;;;;;22.19;77.74;102167.91;5275155;28;20026;-70
2022/05/14 09:44:44;;;;;;;14.75;3.70;;;;;;;22.47;75.30;102170.38;5273817;28;20182;-70
2022/05/14 09:47:26;;;;;;;14.55;4.30;;;;;;;22.72;79.91;102167.78;5287681;28;20055;-70
2022/05/14 09:49:59;;;;;;;16.00;4.00;;;;;;;23.60;75.21;102172.69;5275940;28;20024;-70
2022/05/14 09:52:34;;;;;;;15.82;3.33;;;;;;;24.15;70.77;102161.94;5271318;28;20030;-70
2022/05/14 09:55:08;;;;;;;12.85;3.50;;;;;;;24.74;69.27;102163.25;5266486;28;20451;-70
2022/05/14 09:57:49;;;;;;;15.65;3.70;;;;;;;25.12;66.22;102167.69;5280378;28;20050;-71
2022/05/14 10:00:23;;;;;;;12.90;3.42;;;;;;;23.91;67.69;102171.84;5280459;28;20438;-70
2022/05/14 10:03:19;;;;;;;9.10;3.67;;;;;;;24.53;63.55;102165.38;5275476;28;20032;-70
2022/05/14 10:06:10;;;;;;;24.70;4.03;;;;;;;23.76;70.39;102173.00;5268723;28;20026;-70
2022/05/14 10:08:56;;;;;;;14.85;3.80;;;;;;;23.84;66.59;102171.88;5273977;28;20051;-71
2022/05/14 10:11:40;;;;;;;;;;;;;;;24.47;62.75;102173.69;5275416;28;20039;-70
2022/05/14 10:14:32;;;;;;;13.77;3.50;;;;;;;24.42;63.38;102163.38;5272151;28;19908;-70
2022/05/14 10:17:21;;;;;;;13.90;3.58;;;;;;;24.45;66.53;102164.81;5279886;28;20039;-70
2022/05/14 10:20:06;;;;;;;17.63;3.45;;;;;;;23.78;72.59;102170.03;5267060;28;20424;-70
2022/05/14 10:29:44;;;;;;;11.02;3.20;;;;;;;23.02;73.62;102172.75;5279779;28;20039;-70
2022/05/14 10:32:18;;;;;;;13.43;3.35;;;;;;;23.81;68.77;102166.03;5277354;28;20077;-70
2022/05/14 10:35:12;;;;;;;16.45;3.53;;;;;;;24.08;67.12;102163.91;5266471;28;20024;-70
2022/05/14 10:38:02;;;;;;;12.02;3.55;;;;;;;24.14;67.73;102160.25;5268219;28;20424;-70
2022/05/14 10:40:53;;;;;;;16.65;3.78;;;;;;;24.30;65.85;102159.69;5287193;28;20019;-70
2022/05/14 10:43:57;;;;;;;12.40;3.35;;;;;;;24.47;63.05;102154.47;5266407;28;20020;-70
2022/05/14 10:46:29;;;;;;;16.48;4.63;;;;;;;23.65;68.86;102149.06;5279663;28;20024;-71
2022/05/14 10:49:22;;;;;;;15.43;4.00;;;;;;;24.00;71.40;102154.91;5278991;28;20099;-70
2022/05/14 10:51:53;;;;;;;15.35;3.53;;;;;;;24.07;69.07;102152.09;5266231;28;20047;-70
2022/05/14 10:54:24;;;;;;;15.75;3.65;;;;;;;23.92;69.96;102146.94;5279521;28;20019;-70
2022/05/14 10:57:30;;;;;;;17.95;3.85;;;;;;;23.73;65.56;102156.16;5279360;28;20022;-70
2022/05/14 11:00:15;;;;;;;16.08;4.20;;;;;;;23.58;67.78;102147.38;5266108;28;20085;-70
2022/05/14 11:03:00;;;;;;;;;;;;;;;23.14;71.96;102147.22;5266547;28;20366;-70
2022/05/14 11:05:35;;;;;;;9.27;3.05;;;;;;;23.55;69.45;102151.41;5266036;28;20483;-70
2022/05/14 11:08:09;;;;;;;16.25;3.33;;;;;;;24.13;69.80;102145.69;5285722;28;20047;-70
2022/05/14 11:10:40;;;;;;;12.73;3.38;;;;;;;24.68;63.40;102156.75;5280516;28;20028;-71
2022/05/14 11:13:17;;;;;;;14.23;4.28;;;;;;;24.44;61.84;102153.00;5266025;28;20237;-70
2022/05/14 11:15:59;;;;;;;18.15;4.18;;;;;;;24.49;59.07;102146.84;5272670;28;20028;-70
2022/05/14 11:18:30;;;;;;;15.32;3.83;;;;;;;24.26;59.70;102144.75;5269986;28;20165;-70
2022/05/14 11:21:03;;;;;;;13.35;3.40;;;;;;;24.12;61.25;102146.78;5275107;28;20091;-70
2022/05/14 11:24:03;;;;;;;14.48;3.53;;;;;;;23.90;63.70;102142.78;5265667;28;20024;-70
2022/05/14 11:26:51;;;;;;;16.65;3.80;;;;;;;23.51;65.86;102140.06;5279390;28;20051;-70
2022/05/14 11:29:26;;;;;;;17.85;3.70;;;;;;;24.17;60.02;102146.94;5279532;28;20119;-70
2022/05/14 11:32:18;;;;;;;8.95;2.97;;;;;;;23.85;68.51;102140.69;5286987;28;20053;-70
2022/05/14 11:35:10;;;;;;;12.00;3.65;;;;;;;24.46;58.43;102139.09;5272357;28;20046;-70
2022/05/14 11:37:44;;;;;;;16.15;3.50;;;;;;;24.42;61.56;102146.09;5273188;28;20388;-70
2022/05/14 11:40:24;;;;;;;12.18;3.22;;;;;;;24.39;62.67;102152.03;5277097;28;20494;-71
2022/05/14 11:43:11;;;;;;;16.05;4.00;;;;;;;24.43;61.87;102151.34;5279254;28;20024;-71
2022/05/14 11:45:57;;;;;;;11.20;3.58;;;;;;;24.39;64.21;102138.31;5266190;28;20072;-70
2022/05/14 11:48:37;;;;;;;12.95;2.88;;;;;;;24.72;63.64;102140.69;5276447;28;20027;-72
2022/05/14 11:51:16;;;;;;;14.10;2.92;;;;;;;24.95;59.39;102137.22;5279113;28;20024;-71
2022/05/14 11:53:55;;;;;;;14.57;3.60;;;;;;;25.11;58.19;102133.06;5265169;28;20112;-71
2022/05/14 11:56:35;;;;;;;18.45;3.63;;;;;;;25.17;56.19;102132.13;5286144;28;20024;-71
2022/05/14 11:59:12;;;;;;;12.07;2.78;;;;;;;24.92;62.50;102130.31;5272867;28;20027;-71
2022/05/14 12:01:46;;;;;;;9.15;2.97;;;;;;;24.79;58.64;102133.22;5277292;28;20168;-70
2022/05/14 12:04:27;;;;;;;10.82;3.88;;;;;;;24.60;63.18;102131.53;5288562;28;20373;-71
2022/05/14 12:07:19;;;;;;;11.18;3.17;;;;;;;24.48;58.65;102139.69;5288218;28;20011;-71
2022/05/14 12:10:12;;;;;;;10.10;2.95;;;;;;;23.87;62.93;102133.06;5268961;28;20016;-71
2022/05/14 12:12:53;;;;;;;10.38;2.75;;;;;;;23.96;59.93;102133.66;5268625;28;20020;-71
2022/05/14 12:15:24;;;;;;;13.35;3.22;;;;;;;24.07;60.89;102130.16;5280956;28;20058;-71
2022/05/14 12:17:57;;;;;;;7.65;2.42;;;;;;;24.40;57.26;102121.66;5282098;28;20035;-71
2022/05/14 12:20:30;;;;;;;12.68;3.13;;;;;;;24.56;58.37;102124.84;5281516;27;20111;-71